Time;durP1;ratioP1;P1;durP2;ratioP2;P2;SDS_P1;SDS_P2;PMS_P1;PMS_P2;Temp;Humidity;BMP_temperature;BMP_pressure;BME280_temperature;BME280_humidity;BME280_pressure;Samples;Min_cycle;Max_cycle;Signal;HPM_P1;HPM_P2
2022/10/23 00:00:29;;;;;;;8.60;2.10;;;11.20;99.90;;;;;;6170234;23;20026;-95
2022/10/23 00:02:55;;;;;;;4.20;1.73;;;11.20;99.90;;;;;;6170571;23;20015;-95
2022/10/23 00:05:22;;;;;;;7.25;2.58;;;11.20;99.90;;;;;;6171363;23;20023;-95
2022/10/23 00:07:48;;;;;;;;;;;11.20;99.90;;;;;;6191674;23;20019;-95
2022/10/23 00:10:14;;;;;;;4.80;2.35;;;11.20;99.90;;;;;;6190993;23;20377;-94
2022/10/23 00:12:40;;;;;;;8.53;2.47;;;11.10;99.90;;;;;;6174016;23;20018;-94
2022/10/23 00:15:06;;;;;;;7.73;2.33;;;11.10;99.90;;;;;;6145493;23;20278;-95
2022/10/23 00:17:33;;;;;;;5.78;2.20;;;11.10;99.90;;;;;;6170061;23;20621;-95
2022/10/23 00:20:00;;;;;;;3.75;2.03;;;11.10;99.90;;;;;;6169742;23;20025;-95
2022/10/23 00:22:25;;;;;;;6.07;2.33;;;11.10;99.90;;;;;;6169968;23;20123;-95
2022/10/23 00:24:51;;;;;;;8.33;2.73;;;11.10;99.90;;;;;;6170037;23;20101;-95
2022/10/23 00:27:17;;;;;;;6.85;2.17;;;11.10;99.90;;;;;;6170024;23;20247;-94
2022/10/23 00:29:46;;;;;;;4.03;2.13;;;11.10;99.90;;;;;;6169670;23;20018;-93
2022/10/23 00:32:11;;;;;;;3.90;1.75;;;11.10;99.90;;;;;;6169966;23;20026;-93
2022/10/23 00:34:37;;;;;;;3.90;1.97;;;11.10;99.90;;;;;;6170032;23;20019;-95
2022/10/23 00:37:03;;;;;;;4.23;2.07;;;11.10;99.90;;;;;;6169503;23;20334;-94
2022/10/23 00:39:29;;;;;;;3.73;1.63;;;11.00;99.90;;;;;;6145199;23;20406;-95
2022/10/23 00:41:55;;;;;;;4.70;2.10;;;11.00;99.90;;;;;;6145148;23;20018;-94
2022/10/23 00:44:20;;;;;;;5.07;1.83;;;11.00;99.90;;;;;;6176093;23;20008;-94
2022/10/23 00:46:47;;;;;;;5.93;2.10;;;11.00;99.90;;;;;;6085160;23;20025;-95
2022/10/23 00:49:12;;;;;;;4.93;1.95;;;11.00;99.90;;;;;;6194168;23;20088;-95
2022/10/23 00:52:03;;;;;;;6.57;2.60;;;11.00;99.90;;;;;;6169189;23;20026;-95
2022/10/23 00:54:41;;;;;;;6.15;2.10;;;11.00;99.90;;;;;;6169627;23;20256;-94
2022/10/23 00:57:10;;;;;;;;;;;11.00;99.90;;;;;;6170193;23;20023;-94
2022/10/23 00:59:36;;;;;;;5.53;2.20;;;10.90;99.90;;;;;;6169976;23;19917;-94
2022/10/23 03:10:32;;;;;;;5.00;2.50;;;10.10;99.90;;;;;;6308350;22;20019;-93
2022/10/23 03:12:58;;;;;;;5.35;2.85;;;10.00;99.90;;;;;;6256567;22;20019;-92
2022/10/23 03:15:24;;;;;;;5.95;3.33;;;10.00;99.90;;;;;;6256560;22;20018;-92
2022/10/23 03:17:49;;;;;;;7.40;3.80;;;10.00;99.90;;;;;;6256612;22;20019;-91
2022/10/23 03:20:16;;;;;;;7.73;3.77;;;10.00;99.90;;;;;;6256541;22;20097;-92
2022/10/23 03:22:41;;;;;;;9.63;3.67;;;10.00;99.90;;;;;;6256799;22;20098;-95
2022/10/23 03:25:10;;;;;;;6.97;3.40;;;10.00;99.90;;;;;;6256373;22;20088;-95
2022/10/23 03:27:36;;;;;;;5.55;3.05;;;10.00;99.90;;;;;;6206791;22;20242;-93
2022/10/23 03:30:03;;;;;;;6.63;3.70;;;10.00;99.90;;;;;;6231308;22;20090;-93
2022/10/23 03:33:08;;;;;;;7.65;3.55;;;10.00;99.90;;;;;;6256463;22;20098;-92
2022/10/23 03:35:34;;;;;;;6.22;3.30;;;10.00;99.90;;;;;;6234870;22;20317;-91
2022/10/23 03:38:00;;;;;;;5.10;2.70;;;10.00;99.90;;;;;;6256722;22;20026;-94
2022/10/23 03:40:25;;;;;;;5.97;3.10;;;10.00;99.90;;;;;;6230968;22;20069;-91
2022/10/23 03:42:51;;;;;;;5.40;2.73;;;10.00;99.90;;;;;;6256355;22;20088;-94
2022/10/23 03:45:17;;;;;;;6.27;3.37;;;10.00;99.90;;;;;;6256200;22;20065;-91
2022/10/23 03:47:43;;;;;;;5.70;3.10;;;10.00;99.90;;;;;;6256475;22;20122;-94
2022/10/23 03:50:12;;;;;;;5.35;3.10;;;10.00;99.90;;;;;;6256500;22;20022;-93
2022/10/23 03:57:24;;;;;;;7.32;3.90;;;10.10;99.90;;;;;;6226622;22;20030;-95
2022/10/23 04:00:20;;;;;;;7.22;3.88;;;10.20;99.90;;;;;;6191564;23;20434;-95
2022/10/23 04:06:47;;;;;;;7.32;3.67;;;10.20;99.90;;;;;;6244756;23;20040;-94
2022/10/23 04:09:35;;;;;;;7.50;3.90;;;10.20;99.90;;;;;;6192967;23;20350;-96
2022/10/23 04:18:22;;;;;;;8.07;4.28;;;10.20;99.90;;;;;;6251873;22;20074;-92
2022/10/23 04:20:48;;;;;;;8.70;5.03;;;10.20;99.90;;;;;;6225541;22;20023;-92
2022/10/23 04:23:14;;;;;;;8.90;4.75;;;10.20;99.90;;;;;;6225382;22;20514;-91
2022/10/23 04:25:40;;;;;;;9.43;4.68;;;10.20;99.90;;;;;;6225347;22;20027;-91
2022/10/23 04:28:06;;;;;;;8.97;4.73;;;10.20;99.90;;;;;;6225296;22;20012;-91
2022/10/23 04:30:31;;;;;;;8.97;4.60;;;10.20;99.90;;;;;;6225734;22;20016;-96
2022/10/23 04:32:57;;;;;;;8.97;4.57;;;10.10;99.90;;;;;;6225472;22;20011;-92
2022/10/23 04:35:23;;;;;;;10.23;5.07;;;10.20;99.90;;;;;;6225595;22;20023;-92
2022/10/23 04:37:48;;;;;;;7.63;4.17;;;10.20;99.90;;;;;;6200297;22;20019;-92
2022/10/23 04:40:14;;;;;;;7.37;3.97;;;10.20;99.90;;;;;;6225244;22;20026;-92
2022/10/23 04:42:40;;;;;;;8.33;4.20;;;10.10;99.90;;;;;;6225129;22;20015;-92
2022/10/23 04:45:06;;;;;;;7.10;3.83;;;10.20;99.90;;;;;;6225498;22;20048;-92
2022/10/23 04:47:32;;;;;;;7.63;4.32;;;10.20;99.90;;;;;;6226033;22;20095;-92
2022/10/23 04:49:58;;;;;;;8.40;4.37;;;10.20;99.90;;;;;;6200246;22;20070;-96
2022/10/23 04:52:23;;;;;;;8.10;4.47;;;10.10;99.90;;;;;;6226145;22;20011;-93
2022/10/23 04:54:49;;;;;;;8.17;4.63;;;10.10;99.90;;;;;;6238328;22;20011;-92
2022/10/23 04:57:15;;;;;;;9.50;4.93;;;10.20;99.90;;;;;;6220750;22;20015;-93
2022/10/23 04:59:41;;;;;;;8.97;4.80;;;10.20;99.90;;;;;;6230033;22;20016;-94
2022/10/23 05:02:06;;;;;;;7.97;4.20;;;10.20;99.90;;;;;;6225431;22;20039;-92
2022/10/23 05:04:32;;;;;;;9.80;4.57;;;10.10;99.90;;;;;;6225325;22;20094;-91
2022/10/23 05:07:35;;;;;;;7.73;4.47;;;10.10;99.90;;;;;;6224862;22;20008;-91
2022/10/23 05:10:10;;;;;;;8.32;4.50;;;10.10;99.90;;;;;;6225864;22;20388;-91
2022/10/23 05:12:55;;;;;;;8.50;4.70;;;10.10;99.90;;;;;;6225908;22;20018;-96
2022/10/23 05:16:02;;;;;;;7.50;4.20;;;10.10;99.90;;;;;;6233722;22;20019;-92
2022/10/23 05:18:56;;;;;;;9.45;4.88;;;10.20;99.90;;;;;;6200436;22;20090;-92
2022/10/23 05:21:45;;;;;;;9.43;4.80;;;10.10;99.90;;;;;;6202063;22;20039;-92
2022/10/23 05:32:14;;;;;;;10.90;5.20;;;10.20;99.90;;;;;;6282811;22;20023;-90
2022/10/23 05:34:41;;;;;;;10.15;4.57;;;10.20;99.90;;;;;;6227222;22;20038;-95
2022/10/23 05:37:08;;;;;;;;;;;10.30;99.90;;;;;;6227798;22;20015;-91
2022/10/23 05:39:34;;;;;;;9.77;4.65;;;10.30;99.90;;;;;;6227098;22;20254;-91
2022/10/23 05:42:00;;;;;;;8.93;4.23;;;10.30;99.90;;;;;;6226974;22;20015;-95
2022/10/23 05:44:32;;;;;;;8.90;4.10;;;10.30;99.90;;;;;;6202157;22;20261;-96
2022/10/23 05:46:58;;;;;;;6.70;3.70;;;10.30;99.90;;;;;;6226928;22;20247;-91
2022/10/23 05:49:24;;;;;;;10.00;4.80;;;10.30;99.90;;;;;;6177335;22;20020;-92
2022/10/23 05:51:50;;;;;;;;;;;10.20;99.90;;;;;;6227353;22;20051;-95
2022/10/23 05:54:16;;;;;;;8.40;4.30;;;10.20;99.90;;;;;;6226961;22;19961;-92
2022/10/23 05:56:44;;;;;;;8.55;4.50;;;10.10;99.90;;;;;;6227953;22;20452;-94
2022/10/23 05:59:10;;;;;;;7.97;4.50;;;10.20;99.90;;;;;;6201632;22;20016;-91
2022/10/23 06:01:36;;;;;;;9.27;4.67;;;10.10;99.90;;;;;;6226772;22;20058;-94
2022/10/23 06:04:03;;;;;;;8.93;4.60;;;10.10;99.90;;;;;;6226957;22;20345;-92
2022/10/23 06:06:29;;;;;;;;;;;10.10;99.90;;;;;;6227379;22;20081;-93
2022/10/23 06:08:55;;;;;;;9.75;4.78;;;10.10;99.90;;;;;;6226861;22;19915;-91
2022/10/23 06:11:24;;;;;;;8.73;4.35;;;10.10;99.90;;;;;;6226679;22;20076;-90
2022/10/23 06:13:59;;;;;;;8.02;4.20;;;10.10;99.90;;;;;;6205354;22;20069;-91
2022/10/23 06:16:25;;;;;;;9.00;4.22;;;10.10;99.90;;;;;;6226644;22;20055;-95
2022/10/23 06:18:51;;;;;;;9.35;4.25;;;10.10;99.90;;;;;;6201632;22;20019;-93
2022/10/23 06:21:17;;;;;;;9.50;4.17;;;10.10;99.90;;;;;;6226480;22;20069;-92
2022/10/23 06:23:44;;;;;;;8.07;4.18;;;10.10;99.90;;;;;;6226677;22;20023;-96
2022/10/23 06:26:11;;;;;;;;;;;10.10;99.90;;;;;;6227723;22;20013;-92
2022/10/23 06:28:37;;;;;;;8.40;4.50;;;10.00;99.90;;;;;;6226967;22;20279;-96
2022/10/23 06:31:05;;;;;;;8.32;4.07;;;10.00;99.90;;;;;;6227172;22;20253;-93
2022/10/23 06:33:34;;;;;;;8.05;4.07;;;10.00;99.90;;;;;;6226934;22;20011;-93
2022/10/23 06:36:02;;;;;;;8.73;4.38;;;10.00;99.90;;;;;;6202917;22;20094;-94
2022/10/23 06:38:28;;;;;;;9.00;4.13;;;10.00;99.90;;;;;;6226818;22;20021;-93
2022/10/23 06:41:45;;;;;;;;;;;;;;;;;;;;;
2022/10/23 06:52:21;;;;;;;7.75;4.05;;;10.00;99.90;;;;;;6278317;22;20337;-93
2022/10/23 07:03:14;;;;;;;10.15;4.93;;;10.10;99.90;;;;;;6275974;22;20020;-92
2022/10/23 07:05:40;;;;;;;8.63;4.17;;;10.10;99.90;;;;;;6201394;22;20011;-93
2022/10/23 07:08:06;;;;;;;8.30;4.10;;;10.10;99.90;;;;;;6201207;22;20015;-93
2022/10/23 07:10:31;;;;;;;12.20;4.72;;;10.10;99.90;;;;;;6201344;22;20095;-93
2022/10/23 07:12:59;;;;;;;9.00;4.77;;;10.20;99.90;;;;;;6201510;22;20047;-94
2022/10/23 07:15:26;;;;;;;9.77;4.82;;;10.20;99.90;;;;;;6226408;22;20479;-92
2022/10/23 07:17:52;;;;;;;9.90;5.10;;;10.30;99.90;;;;;;6225908;22;20019;-95
2022/10/23 07:20:19;;;;;;;7.70;4.25;;;10.30;99.90;;;;;;6225657;22;20026;-92
2022/10/23 07:22:53;;;;;;;9.40;4.55;;;10.40;99.90;;;;;;6176433;22;20020;-92
2022/10/23 07:43:36;;;;;;;9.38;4.75;;;10.80;99.90;;;;;;6098277;22;20030;-93
2022/10/23 07:46:18;;;;;;;8.15;4.45;;;10.80;99.90;;;;;;6199660;23;20026;-92
2022/10/23 07:48:44;;;;;;;8.60;4.45;;;10.90;99.90;;;;;;6198196;23;20018;-91
2022/10/23 07:51:15;;;;;;;13.00;5.97;;;10.90;99.90;;;;;;6151192;23;20014;-92
2022/10/23 07:53:42;;;;;;;13.00;5.00;;;11.00;99.90;;;;;;6201232;23;20022;-92
2022/10/23 07:56:18;;;;;;;9.55;4.60;;;11.00;99.90;;;;;;6175751;23;20440;-92
2022/10/23 07:58:44;;;;;;;9.60;5.07;;;11.00;99.90;;;;;;6202572;23;20482;-92
2022/10/23 08:01:18;;;;;;;10.03;5.30;;;11.10;99.90;;;;;;6200289;23;20018;-92
2022/10/23 08:03:47;;;;;;;9.57;4.80;;;11.10;99.90;;;;;;6200477;23;20049;-93
2022/10/23 08:06:29;;;;;;;10.85;5.25;;;11.10;99.90;;;;;;6223521;22;20079;-90
2022/10/23 08:09:03;;;;;;;11.55;4.97;;;11.10;99.90;;;;;;6200228;23;20439;-96
2022/10/23 08:11:36;;;;;;;9.15;4.88;;;11.20;99.90;;;;;;6175092;22;20037;-93
2022/10/23 08:14:23;;;;;;;11.18;5.03;;;11.20;99.90;;;;;;6174850;23;20025;-94
2022/10/23 08:16:49;;;;;;;8.57;4.57;;;11.30;99.90;;;;;;6199539;23;20049;-94
2022/10/23 08:19:15;;;;;;;10.50;5.13;;;11.30;99.90;;;;;;6175535;23;20060;-94
2022/10/23 08:21:41;;;;;;;10.57;5.53;;;11.30;99.90;;;;;;6201975;23;20079;-95
2022/10/23 08:24:12;;;;;;;10.83;5.67;;;11.40;99.90;;;;;;6177059;23;20041;-91
2022/10/23 08:26:38;;;;;;;9.32;4.78;;;11.40;99.90;;;;;;6224686;22;20014;-94
2022/10/23 08:29:25;;;;;;;9.25;5.13;;;11.40;99.90;;;;;;6199692;23;20025;-89
2022/10/23 08:32:43;;;;;;;10.40;5.03;;;11.50;99.90;;;;;;6200674;23;20515;-94
2022/10/23 08:35:24;;;;;;;9.85;4.65;;;11.50;99.90;;;;;;6225609;23;20378;-89
2022/10/23 08:37:50;;;;;;;10.48;4.53;;;11.60;99.90;;;;;;6174525;23;20018;-93
2022/10/23 08:40:20;;;;;;;10.53;4.80;;;11.60;99.90;;;;;;6199896;23;20022;-94
2022/10/23 08:43:15;;;;;;;9.75;4.20;;;11.70;99.90;;;;;;6199468;23;20026;-91
2022/10/23 08:45:54;;;;;;;9.60;4.85;;;11.70;99.90;;;;;;6244483;22;20020;-91
2022/10/23 08:48:30;;;;;;;10.13;4.82;;;11.80;99.90;;;;;;6220315;23;20454;-91
2022/10/23 08:51:25;;;;;;;9.00;4.38;;;11.80;99.90;;;;;;6220068;22;20020;-91
2022/10/23 08:54:15;;;;;;;9.82;4.85;;;11.90;99.90;;;;;;6212862;23;20048;-95
2022/10/23 08:56:47;;;;;;;9.48;4.40;;;11.90;99.90;;;;;;6220723;23;20154;-91
2022/10/23 08:59:26;;;;;;;9.68;4.72;;;12.00;99.90;;;;;;6222981;23;20035;-95
2022/10/23 09:02:01;;;;;;;9.68;4.65;;;12.00;99.90;;;;;;6220312;23;20062;-96
2022/10/23 09:04:27;;;;;;;10.40;5.30;;;12.00;99.90;;;;;;6245609;22;20016;-96
2022/10/23 09:07:08;;;;;;;10.52;5.05;;;12.10;99.90;;;;;;6220939;23;20095;-95
2022/10/23 09:09:55;;;;;;;10.38;4.75;;;12.10;99.90;;;;;;6220524;22;20016;-95
2022/10/23 09:12:23;;;;;;;10.18;4.85;;;12.20;99.90;;;;;;6222031;22;20012;-93
2022/10/23 09:14:59;;;;;;;9.13;4.78;;;12.20;99.90;;;;;;6222944;23;20433;-94
2022/10/23 09:17:26;;;;;;;8.25;4.03;;;12.30;99.90;;;;;;6245124;22;20091;-91
2022/10/23 09:20:21;;;;;;;8.43;4.07;;;12.30;99.90;;;;;;6219438;23;20614;-94
2022/10/23 09:22:55;;;;;;;8.38;3.78;;;12.40;99.90;;;;;;6216011;23;20020;-93
2022/10/23 09:25:25;;;;;;;9.85;4.10;;;12.40;99.90;;;;;;6220209;23;20016;-93
2022/10/23 09:27:54;;;;;;;8.77;4.05;;;12.50;99.90;;;;;;6220303;23;20016;-95
2022/10/23 09:30:32;;;;;;;9.38;4.13;;;12.60;99.90;;;;;;6220483;23;20058;-94
2022/10/23 09:32:59;;;;;;;9.70;4.53;;;12.60;99.90;;;;;;6222484;23;20104;-96
2022/10/23 09:35:28;;;;;;;7.97;3.78;;;12.70;99.90;;;;;;6234184;23;20016;-92
2022/10/23 09:38:08;;;;;;;8.70;4.00;;;12.70;99.90;;;;;;6241268;23;20027;-94
2022/10/23 09:56:02;;;;;;;7.45;3.67;;;13.00;99.90;;;;;;6216621;22;20059;-90
2022/10/23 09:58:38;;;;;;;8.07;4.25;;;13.10;99.90;;;;;;6198600;23;20018;-92
2022/10/23 10:01:04;;;;;;;8.63;4.33;;;13.10;99.90;;;;;;6199062;23;20064;-90
2022/10/23 10:03:30;;;;;;;6.68;3.95;;;13.20;99.90;;;;;;6198928;23;20246;-90
2022/10/23 10:05:59;;;;;;;7.95;4.32;;;13.20;99.90;;;;;;6174171;23;20139;-90
2022/10/23 10:08:47;;;;;;;7.72;3.63;;;13.30;99.90;;;;;;6199515;23;20049;-94
2022/10/23 10:11:29;;;;;;;8.60;4.10;;;13.30;99.90;;;;;;6212191;23;20016;-90
2022/10/23 10:14:32;;;;;;;6.28;3.40;;;13.40;99.90;;;;;;6221441;23;20020;-90
2022/10/23 10:17:04;;;;;;;7.93;3.88;;;13.40;99.90;;;;;;6221646;23;20027;-92
2022/10/23 10:22:14;;;;;;;7.32;3.65;;;13.50;99.90;;;;;;6122089;22;20505;-90
2022/10/23 10:25:10;;;;;;;7.47;3.60;;;13.60;99.90;;;;;;6200581;23;20018;-91
2022/10/23 10:30:18;;;;;;;7.97;3.45;;;13.70;99.90;;;;;;6107338;23;20020;-91
2022/10/23 10:32:58;;;;;;;7.03;3.85;;;13.80;99.90;;;;;;6171145;23;20022;-90
2022/10/23 10:48:42;;;;;;;8.63;3.83;;;14.20;99.90;;;;;;6099864;23;20033;-94
2022/10/23 10:58:34;;;;;;;5.75;2.70;;;14.30;99.90;;;;;;6277130;22;20024;-92
2022/10/23 11:01:04;;;;;;;6.97;3.30;;;14.40;99.90;;;;;;6125216;23;20056;-93
2022/10/23 13:36:36;;;;;;;8.48;2.33;;;15.20;99.90;;;;;;6209568;22;20021;-94
2022/10/23 13:39:12;;;;;;;3.67;1.70;;;15.20;99.90;;;;;;6184116;23;20026;-93
2022/10/23 13:46:50;;;;;;;4.53;1.90;;;15.30;99.90;;;;;;6121531;22;20029;-93
2022/10/23 13:49:17;;;;;;;5.43;1.65;;;15.30;99.90;;;;;;6176807;23;20026;-94
2022/10/23 13:51:43;;;;;;;;;;;15.30;99.90;;;;;;6200852;23;20018;-95
2022/10/23 13:54:13;;;;;;;8.13;1.60;;;15.30;99.90;;;;;;6250785;22;19962;-94
2022/10/23 13:56:40;;;;;;;4.43;2.00;;;15.30;99.90;;;;;;6201134;23;20006;-93
2022/10/23 13:59:07;;;;;;;6.05;2.10;;;15.30;99.90;;;;;;6201625;23;20018;-95
2022/10/23 14:01:34;;;;;;;5.75;2.00;;;15.30;99.90;;;;;;6201582;23;20018;-94
2022/10/23 14:04:02;;;;;;;4.38;1.70;;;15.30;99.90;;;;;;6200465;23;20375;-94
2022/10/23 14:06:28;;;;;;;5.03;2.20;;;15.30;99.90;;;;;;6203972;23;20018;-94
2022/10/23 14:12:11;;;;;;;4.30;1.83;;;15.30;99.90;;;;;;6126363;22;20026;-93
2022/10/23 14:14:37;;;;;;;3.55;1.60;;;15.30;99.90;;;;;;6177012;23;20026;-93
2022/10/23 14:17:03;;;;;;;5.28;2.10;;;15.30;99.90;;;;;;6211026;23;20018;-94
2022/10/23 14:19:29;;;;;;;3.97;1.70;;;15.30;99.90;;;;;;6201437;23;20022;-94
2022/10/23 14:21:57;;;;;;;4.38;1.58;;;15.30;99.90;;;;;;6202705;23;20075;-95
2022/10/23 14:24:23;;;;;;;4.22;1.98;;;15.20;99.90;;;;;;6200771;23;20072;-95
2022/10/23 14:26:49;;;;;;;4.63;1.92;;;15.30;99.90;;;;;;6198398;23;20025;-92
2022/10/23 14:29:16;;;;;;;3.90;1.50;;;15.20;99.90;;;;;;6201130;23;20022;-91
2022/10/23 14:31:41;;;;;;;4.32;1.60;;;15.20;99.90;;;;;;6177225;23;20268;-96
2022/10/23 14:34:07;;;;;;;4.80;1.90;;;15.20;99.90;;;;;;6201399;23;20018;-94
2022/10/23 14:36:33;;;;;;;3.40;1.63;;;15.20;99.90;;;;;;6175876;23;20046;-93
2022/10/23 14:38:59;;;;;;;5.05;1.75;;;15.20;99.90;;;;;;6175870;23;20436;-93
2022/10/23 14:41:25;;;;;;;3.72;1.50;;;15.20;99.90;;;;;;6200749;23;20420;-94
2022/10/23 14:43:52;;;;;;;5.53;1.98;;;15.20;99.90;;;;;;6200530;23;20076;-93
2022/10/23 16:46:47;;;;;;;3.13;1.45;;;14.80;99.90;;;;;;6213614;22;20099;-92
2022/10/23 16:55:06;;;;;;;3.58;1.55;;;14.80;99.90;;;;;;6228410;22;20019;-91
2022/10/23 16:57:35;;;;;;;3.47;1.42;;;14.80;99.90;;;;;;6225746;22;20019;-92
2022/10/23 17:00:02;;;;;;;4.25;1.83;;;14.80;99.90;;;;;;6225223;22;20055;-92
2022/10/23 17:02:35;;;;;;;;;;;14.70;99.90;;;;;;6225672;22;20043;-91
2022/10/23 17:05:39;;;;;;;;;;;;;;;;;;;;;
2022/10/23 17:08:08;;;;;;;4.60;1.70;;;14.70;99.90;;;;;;6232226;22;20091;-91
2022/10/23 17:10:43;;;;;;;;;;;;;;;;;;;;;
2022/10/23 17:13:12;;;;;;;3.55;1.70;;;14.70;99.90;;;;;;6251445;22;20026;-92
2022/10/23 17:15:40;;;;;;;2.90;1.30;;;14.70;99.90;;;;;;6225363;22;20019;-91
2022/10/23 17:18:05;;;;;;;4.75;1.55;;;14.70;99.90;;;;;;6225346;22;20103;-92
2022/10/23 17:20:31;;;;;;;3.17;1.45;;;14.70;99.90;;;;;;6225084;22;20054;-94
2022/10/23 17:22:57;;;;;;;3.90;1.50;;;14.60;99.90;;;;;;6224777;22;20012;-91
2022/10/23 17:25:23;;;;;;;4.35;1.40;;;14.60;99.90;;;;;;6225264;22;20099;-92
2022/10/23 17:30:45;;;;;;;3.50;1.50;;;14.60;99.90;;;;;;6191289;22;20289;-92
2022/10/23 17:33:13;;;;;;;2.72;1.10;;;14.60;99.90;;;;;;6199763;23;20589;-93
2022/10/23 17:35:41;;;;;;;3.15;1.50;;;14.60;99.90;;;;;;6174353;23;20010;-92
2022/10/23 17:38:06;;;;;;;3.58;1.50;;;14.50;99.90;;;;;;6199421;23;20018;-92
2022/10/23 17:40:32;;;;;;;2.53;1.05;;;14.50;99.90;;;;;;6174376;23;20466;-92
2022/10/23 17:42:59;;;;;;;3.45;1.30;;;14.50;99.90;;;;;;6199453;23;20014;-92
2022/10/23 17:45:25;;;;;;;3.78;1.35;;;14.50;99.90;;;;;;6199802;23;20014;-92
2022/10/23 17:47:51;;;;;;;4.32;1.50;;;14.50;99.90;;;;;;6199051;23;20101;-92
2022/10/23 17:50:18;;;;;;;4.53;1.67;;;14.50;99.90;;;;;;6199180;23;20065;-93
2022/10/23 17:52:44;;;;;;;3.22;1.30;;;14.50;99.90;;;;;;6174526;23;20415;-92
2022/10/23 17:55:10;;;;;;;4.68;1.50;;;14.50;99.90;;;;;;6174754;23;20531;-92
2022/10/23 17:57:35;;;;;;;4.28;1.80;;;14.50;99.90;;;;;;6199270;23;20014;-92
2022/10/23 18:00:03;;;;;;;5.65;1.25;;;14.50;99.90;;;;;;6199610;23;20130;-92
2022/10/23 18:02:28;;;;;;;3.50;1.60;;;14.50;99.90;;;;;;6199341;23;20014;-92
2022/10/23 18:04:54;;;;;;;4.85;1.30;;;14.50;99.90;;;;;;6199772;23;20423;-92
2022/10/23 18:07:20;;;;;;;3.60;1.30;;;14.50;99.90;;;;;;6149507;23;20014;-92
2022/10/23 18:09:52;;;;;;;4.00;1.35;;;14.50;99.90;;;;;;6174021;23;20707;-92
2022/10/23 18:12:18;;;;;;;3.35;1.30;;;14.50;99.90;;;;;;6198905;23;20046;-92
2022/10/23 18:14:43;;;;;;;4.55;1.40;;;14.50;99.90;;;;;;6174560;23;20074;-92
2022/10/23 18:17:09;;;;;;;6.93;2.07;;;14.60;99.90;;;;;;6199738;23;20024;-93
2022/10/23 18:22:10;;;;;;;3.85;1.40;;;14.50;99.90;;;;;;6175747;22;20279;-92
2022/10/23 18:24:37;;;;;;;3.90;1.23;;;14.50;99.90;;;;;;6226063;22;20438;-93
2022/10/23 18:29:42;;;;;;;3.60;1.30;;;14.60;99.90;;;;;;6119588;22;19917;-92
2022/10/23 18:32:08;;;;;;;3.50;1.45;;;14.60;99.90;;;;;;6151142;23;20347;-92
2022/10/23 18:34:46;;;;;;;2.13;1.10;;;14.50;99.90;;;;;;6200401;23;20032;-92
2022/10/23 18:37:29;;;;;;;2.58;1.10;;;14.60;99.90;;;;;;6150854;23;20025;-93
2022/10/23 18:39:55;;;;;;;3.08;1.20;;;14.50;99.90;;;;;;6176332;23;20022;-92
2022/10/23 18:42:51;;;;;;;3.72;1.42;;;14.50;99.90;;;;;;6175760;23;20200;-92
2022/10/23 18:59:23;;;;;;;3.05;1.50;;;14.50;99.90;;;;;;6088973;23;20085;-94
2022/10/23 19:23:11;;;;;;;3.15;1.10;;;14.50;99.90;;;;;;6247455;22;20078;-94
2022/10/23 19:25:36;;;;;;;5.13;1.50;;;14.50;99.90;;;;;;6146867;22;20020;-93
2022/10/23 19:28:03;;;;;;;3.15;1.50;;;14.50;99.90;;;;;;6171458;22;20011;-93
2022/10/23 19:30:29;;;;;;;5.05;1.20;;;14.50;99.90;;;;;;6195958;23;20016;-93
2022/10/23 19:32:56;;;;;;;3.28;1.30;;;14.50;99.90;;;;;;6171514;23;20099;-94
2022/10/23 19:35:21;;;;;;;4.57;1.27;;;14.50;99.90;;;;;;6171423;23;20069;-94
2022/10/23 19:37:47;;;;;;;3.05;1.45;;;14.60;99.90;;;;;;6196098;23;20016;-93
2022/10/23 19:40:14;;;;;;;5.85;1.60;;;14.50;99.90;;;;;;6171132;23;20080;-93
2022/10/23 19:42:41;;;;;;;4.63;1.48;;;14.50;99.90;;;;;;6195854;23;20099;-94
2022/10/23 19:45:10;;;;;;;3.35;1.23;;;14.60;99.90;;;;;;6195448;23;20035;-94
2022/10/23 19:47:36;;;;;;;3.25;1.33;;;14.50;99.90;;;;;;6195997;23;20016;-93
2022/10/23 19:50:04;;;;;;;3.53;1.33;;;14.50;99.90;;;;;;6195878;23;20031;-92
2022/10/23 19:52:30;;;;;;;3.83;1.50;;;14.50;99.90;;;;;;6195906;23;20012;-93
2022/10/23 19:54:55;;;;;;;5.40;1.42;;;14.50;99.90;;;;;;6195883;22;20070;-93
2022/10/23 19:57:21;;;;;;;4.30;1.50;;;14.50;99.90;;;;;;6195757;22;20024;-95
2022/10/23 19:59:48;;;;;;;6.63;1.57;;;14.50;99.90;;;;;;6195568;22;20275;-96
2022/10/23 20:02:15;;;;;;;2.90;1.20;;;14.50;99.90;;;;;;6195721;22;20251;-94
2022/10/23 20:04:40;;;;;;;4.10;1.42;;;14.50;99.90;;;;;;6195994;23;20051;-95
2022/10/23 20:07:06;;;;;;;5.65;1.40;;;14.50;99.90;;;;;;6172067;23;20023;-93
2022/10/23 20:09:57;;;;;;;3.08;1.30;;;14.50;99.90;;;;;;6176036;23;20067;-91
2022/10/23 20:12:23;;;;;;;4.55;1.23;;;14.50;99.90;;;;;;6205147;22;20016;-91
2022/10/23 20:14:49;;;;;;;3.20;1.23;;;14.60;99.90;;;;;;6206143;23;20020;-92
2022/10/23 20:31:10;;;;;;;4.18;1.30;;;14.70;99.90;;;;;;6210488;22;20447;-94
2022/10/23 20:33:38;;;;;;;4.03;1.30;;;14.70;99.90;;;;;;6199059;23;20033;-90
2022/10/23 20:36:06;;;;;;;3.90;1.50;;;14.80;99.90;;;;;;6199395;23;20036;-90
2022/10/23 20:38:33;;;;;;;3.30;1.58;;;14.80;99.90;;;;;;6199367;23;20022;-91
2022/10/23 20:41:02;;;;;;;4.68;1.17;;;14.80;99.90;;;;;;6199348;23;20111;-90
2022/10/23 20:43:32;;;;;;;5.13;1.20;;;14.80;99.90;;;;;;6199214;23;20439;-91
2022/10/23 20:46:06;;;;;;;3.35;1.30;;;14.80;99.90;;;;;;6199048;23;20029;-91
2022/10/23 20:48:43;;;;;;;3.63;1.27;;;14.90;99.90;;;;;;6198947;23;20093;-91
2022/10/23 20:51:13;;;;;;;4.25;1.23;;;14.90;99.90;;;;;;6199093;23;20487;-91
2022/10/23 20:53:41;;;;;;;2.92;1.30;;;14.90;99.90;;;;;;6198924;23;20020;-91
2022/10/23 20:56:11;;;;;;;3.45;1.30;;;14.90;99.90;;;;;;6174057;23;20018;-91
2022/10/23 20:58:37;;;;;;;3.65;1.00;;;15.00;99.90;;;;;;6199017;23;20018;-91
2022/10/23 21:01:08;;;;;;;4.47;1.20;;;15.00;99.90;;;;;;6199538;23;20022;-91
2022/10/23 21:03:34;;;;;;;3.25;1.30;;;15.00;99.90;;;;;;6199459;23;20104;-91
2022/10/23 21:06:14;;;;;;;3.40;1.45;;;15.10;99.90;;;;;;6224216;22;20067;-91
2022/10/23 21:08:40;;;;;;;3.33;0.95;;;15.10;99.90;;;;;;6199159;23;20097;-91
2022/10/23 21:11:10;;;;;;;2.60;1.00;;;15.10;99.90;;;;;;6199206;23;20025;-90
2022/10/23 21:13:55;;;;;;;3.40;1.10;;;15.10;99.90;;;;;;6173541;23;20028;-93
2022/10/23 21:16:27;;;;;;;3.45;1.10;;;15.20;99.90;;;;;;6200450;23;20018;-91
2022/10/23 21:19:03;;;;;;;2.60;0.95;;;15.20;99.90;;;;;;6202720;23;20022;-91
2022/10/23 21:21:32;;;;;;;2.75;1.10;;;15.20;99.90;;;;;;6201704;23;20072;-91
2022/10/23 21:23:59;;;;;;;2.38;1.02;;;15.20;99.90;;;;;;6175993;23;20014;-92
2022/10/23 21:26:30;;;;;;;3.17;1.00;;;15.30;99.90;;;;;;6200430;23;20018;-92
2022/10/23 21:28:59;;;;;;;3.67;1.27;;;15.40;99.90;;;;;;6199594;23;20105;-93
2022/10/23 21:31:31;;;;;;;2.65;1.13;;;15.40;99.90;;;;;;6219861;23;20024;-92
2022/10/23 21:33:58;;;;;;;2.20;0.98;;;15.40;99.90;;;;;;6219734;23;20016;-92
2022/10/23 21:36:24;;;;;;;2.10;1.00;;;15.40;99.90;;;;;;6220100;22;20055;-93
2022/10/23 21:38:53;;;;;;;4.45;1.00;;;15.40;99.90;;;;;;6220149;22;20039;-92
2022/10/23 21:41:23;;;;;;;3.83;1.02;;;15.40;99.90;;;;;;6220027;22;20143;-91
2022/10/23 21:43:52;;;;;;;2.47;1.10;;;15.50;99.90;;;;;;6220401;23;20020;-92
2022/10/23 21:46:19;;;;;;;3.30;1.23;;;15.50;99.90;;;;;;6220318;22;20038;-92
2022/10/23 21:48:45;;;;;;;3.45;1.00;;;15.50;99.90;;;;;;6220187;22;20016;-92
2022/10/23 21:51:16;;;;;;;3.92;1.13;;;15.50;99.90;;;;;;6220147;23;20103;-92
2022/10/23 21:53:42;;;;;;;3.35;0.95;;;15.50;99.90;;;;;;6219805;23;20012;-92
2022/10/23 21:56:27;;;;;;;4.25;1.10;;;15.50;99.90;;;;;;6219866;23;20450;-91
2022/10/23 21:58:53;;;;;;;3.45;1.15;;;15.50;99.90;;;;;;6219916;22;20012;-92
2022/10/23 22:01:19;;;;;;;3.80;1.58;;;15.50;99.90;;;;;;6245299;22;20016;-91
2022/10/23 22:03:45;;;;;;;2.65;1.05;;;15.50;99.90;;;;;;6220146;23;20118;-92
2022/10/23 22:06:16;;;;;;;4.05;1.00;;;15.40;99.90;;;;;;6219804;23;20442;-92
2022/10/23 22:08:42;;;;;;;2.28;0.90;;;15.40;99.90;;;;;;6221009;23;20430;-92
2022/10/23 22:11:07;;;;;;;3.47;0.98;;;15.30;99.90;;;;;;6221970;23;20016;-93
2022/10/23 22:13:33;;;;;;;4.65;1.00;;;15.30;99.90;;;;;;6221964;23;20016;-92
2022/10/23 22:16:03;;;;;;;4.20;1.30;;;15.30;99.90;;;;;;6222059;23;20023;-92
2022/10/23 22:18:29;;;;;;;3.17;1.02;;;15.30;99.90;;;;;;6221620;23;20322;-90
2022/10/23 22:21:16;;;;;;;6.00;1.33;;;15.20;99.90;;;;;;6221863;23;20070;-93
2022/10/23 22:23:42;;;;;;;3.05;1.08;;;15.20;99.90;;;;;;6221673;23;20066;-92
2022/10/23 22:26:27;;;;;;;3.75;1.52;;;15.20;99.90;;;;;;6221877;23;20020;-92
2022/10/23 22:28:56;;;;;;;3.70;1.35;;;15.20;99.90;;;;;;6221571;23;20016;-92
2022/10/23 22:31:24;;;;;;;2.75;1.10;;;15.10;99.90;;;;;;6221409;23;20138;-91
2022/10/23 22:33:51;;;;;;;4.53;1.20;;;15.10;99.90;;;;;;6221733;23;20023;-92
2022/10/23 22:36:17;;;;;;;4.32;1.60;;;15.10;99.90;;;;;;6221576;23;20016;-91
2022/10/23 22:38:44;;;;;;;3.88;1.08;;;15.10;99.90;;;;;;6221244;23;20441;-92